Time;durP1;ratioP1;P1;durP2;ratioP2;P2;SDS_P1;SDS_P2;PMS_P1;PMS_P2;Temp;Humidity;BMP_temperature;BMP_pressure;BME280_temperature;BME280_humidity;BME280_pressure;Samples;Min_cycle;Max_cycle;Signal;HPM_P1;HPM_P2
2023/07/20 00:01:13;;;;;;;2.78;1.10;;;;;;;19.32;67.00;98420.56;4144831;28;20212;-49
2023/07/20 00:03:18;;;;;;;1.63;1.50;;;;;;;19.31;67.51;98418.91;4138233;28;20516;-48
2023/07/20 00:05:24;;;;;;;2.25;1.08;;;;;;;19.24;67.72;98418.50;4141740;28;20209;-48
2023/07/20 00:07:26;;;;;;;1.30;1.13;;;;;;;19.22;67.86;98416.03;4135019;28;20218;-49
2023/07/20 00:09:28;;;;;;;1.90;1.25;;;;;;;19.20;67.88;98417.47;4152395;28;20267;-49
2023/07/20 00:11:30;;;;;;;1.90;1.17;;;;;;;19.23;68.28;98422.41;4136945;28;20206;-50
2023/07/20 00:13:31;;;;;;;1.60;1.10;;;;;;;19.15;68.43;98426.69;4141316;28;20240;-52
2023/07/20 00:15:33;;;;;;;1.58;1.17;;;;;;;19.08;68.44;98431.00;4138931;28;20206;-51
2023/07/20 00:17:37;;;;;;;1.33;1.08;;;;;;;19.08;68.89;98420.72;4138542;28;20632;-48
2023/07/20 00:19:38;;;;;;;8.35;1.58;;;;;;;18.92;69.18;98419.34;4137389;28;20747;-50
2023/07/20 00:21:42;;;;;;;2.25;2.03;;;;;;;18.88;69.58;98425.81;4144446;28;20219;-50
2023/07/20 00:23:44;;;;;;;2.25;1.67;;;;;;;18.83;69.80;98428.69;4143623;28;20702;-52
2023/07/20 00:25:47;;;;;;;1.40;1.00;;;;;;;18.83;69.88;98429.53;4126549;28;20249;-51
2023/07/20 00:27:48;;;;;;;2.03;1.10;;;;;;;18.74;69.95;98436.06;4134560;28;20297;-50
2023/07/20 00:29:50;;;;;;;1.77;1.42;;;;;;;18.65;70.09;98435.13;4138817;28;20214;-51
2023/07/20 00:31:52;;;;;;;1.30;1.20;;;;;;;18.57;70.28;98430.28;4141067;28;20626;-49
2023/07/20 00:33:53;;;;;;;1.25;1.02;;;;;;;18.48;70.41;98432.09;4136021;28;20214;-49
2023/07/20 00:35:55;;;;;;;1.50;1.10;;;;;;;18.49;70.62;98436.50;4143844;28;20213;-51
2023/07/20 00:37:57;;;;;;;1.20;1.10;;;;;;;18.59;70.84;98433.56;4126676;28;20237;-50
2023/07/20 00:39:59;;;;;;;1.88;1.30;;;;;;;18.53;70.85;98437.56;4143721;28;20668;-51
2023/07/20 00:42:01;;;;;;;1.80;1.25;;;;;;;18.50;71.55;98436.22;4142753;28;20312;-50
2023/07/20 00:44:02;;;;;;;1.85;1.40;;;;;;;18.44;72.11;98439.38;4143285;28;20216;-50
2023/07/20 00:46:05;;;;;;;2.30;1.27;;;;;;;18.43;72.14;98434.94;4141013;28;20209;-50
2023/07/20 00:48:07;;;;;;;2.15;1.33;;;;;;;18.39;72.53;98440.25;4141633;28;20654;-49
2023/07/20 00:50:10;;;;;;;1.40;1.30;;;;;;;18.36;72.57;98437.28;4136789;28;20218;-53
2023/07/20 00:52:14;;;;;;;2.45;1.48;;;;;;;18.41;72.95;98442.75;4143613;28;20299;-50
2023/07/20 00:54:16;;;;;;;3.97;1.27;;;;;;;18.32;73.01;98434.28;4137253;28;20224;-49
2023/07/20 00:56:18;;;;;;;1.25;1.00;;;;;;;18.27;72.85;98430.75;4140508;28;20218;-49
2023/07/20 00:58:20;;;;;;;2.25;1.38;;;;;;;18.08;73.51;98438.25;4137153;28;20693;-49
2023/07/20 01:00:22;;;;;;;1.70;1.10;;;;;;;18.07;73.66;98442.16;4140346;28;20217;-49
2023/07/20 01:02:24;;;;;;;5.32;1.77;;;;;;;18.01;73.94;98437.81;4140936;28;20283;-50
2023/07/20 01:04:27;;;;;;;2.78;1.25;;;;;;;18.05;73.82;98436.09;4142957;28;20965;-51
2023/07/20 01:06:53;;;;;;;1.30;1.20;;;;;;;17.92;73.34;98439.63;4135536;28;20257;-50
2023/07/20 01:09:19;;;;;;;1.73;1.20;;;;;;;17.90;74.03;98433.53;4135554;28;20799;-49
2023/07/20 01:11:30;;;;;;;1.70;1.05;;;;;;;17.86;74.38;98435.28;4136353;28;20201;-48
2023/07/20 01:13:33;;;;;;;4.63;1.15;;;;;;;17.80;74.59;98436.47;4133553;28;20205;-49
2023/07/20 01:15:34;;;;;;;2.38;1.65;;;;;;;17.74;74.77;98437.66;4135382;28;20221;-50
2023/07/20 01:17:36;;;;;;;1.00;0.90;;;;;;;17.67;74.66;98432.50;4133135;28;20208;-50
2023/07/20 01:19:39;;;;;;;2.55;1.33;;;;;;;17.64;75.39;98427.53;4152519;28;20250;-49
2023/07/20 01:21:49;;;;;;;1.65;1.40;;;;;;;17.59;75.50;98430.38;4142341;28;20220;-51
2023/07/20 01:24:15;;;;;;;2.88;1.00;;;;;;;17.60;76.02;98425.66;4151319;28;20721;-53
2023/07/20 01:26:22;;;;;;;2.35;1.30;;;;;;;17.52;75.94;98432.69;4133326;28;20252;-50
2023/07/20 01:28:37;;;;;;;2.00;1.27;;;;;;;17.50;76.14;98431.31;4133885;28;20229;-53
2023/07/20 01:30:56;;;;;;;3.08;1.30;;;;;;;17.44;76.28;98424.25;4133208;28;20730;-51
2023/07/20 01:32:58;;;;;;;5.18;2.10;;;;;;;17.43;76.71;98425.31;4118174;28;20285;-51
2023/07/20 01:35:01;;;;;;;2.30;1.30;;;;;;;17.43;76.99;98420.63;4123375;28;20210;-51
2023/07/20 01:37:03;;;;;;;3.58;1.70;;;;;;;17.40;76.93;98431.47;4125794;28;20273;-51
2023/07/20 01:39:06;;;;;;;1.52;1.25;;;;;;;17.40;76.77;98432.28;4137117;28;20243;-52
2023/07/20 01:41:08;;;;;;;2.47;1.15;;;;;;;17.40;76.96;98420.41;4141353;28;20671;-50
2023/07/20 01:43:10;;;;;;;2.25;1.17;;;;;;;17.36;77.14;98420.13;4133939;28;20229;-51
2023/07/20 01:45:12;;;;;;;4.47;1.17;;;;;;;17.33;77.25;98428.22;4133131;28;20249;-52
2023/07/20 01:47:13;;;;;;;3.08;1.45;;;;;;;17.28;77.20;98412.50;4134150;28;20228;-51
2023/07/20 01:49:15;;;;;;;2.15;1.55;;;;;;;17.29;77.76;98419.69;4135665;28;20263;-52
2023/07/20 01:51:17;;;;;;;2.22;1.13;;;;;;;17.24;78.15;98416.13;4133181;28;20738;-51
2023/07/20 01:53:20;;;;;;;3.20;1.30;;;;;;;17.26;78.46;98419.44;4134976;28;20216;-50
2023/07/20 01:55:22;;;;;;;1.30;1.20;;;;;;;17.16;78.71;98414.84;4135395;28;20699;-52
2023/07/20 01:57:24;;;;;;;2.00;1.33;;;;;;;17.10;78.75;98420.72;4150930;28;20208;-51
2023/07/20 01:59:25;;;;;;;2.03;1.38;;;;;;;17.02;78.91;98421.38;4139139;28;20229;-51
2023/07/20 02:01:30;;;;;;;1.25;1.00;;;;;;;16.96;78.95;98416.22;4124480;28;20289;-49
2023/07/20 02:03:32;;;;;;;2.53;1.30;;;;;;;17.02;79.13;98418.63;4134129;28;20216;-50
2023/07/20 02:05:33;;;;;;;1.40;1.20;;;;;;;16.99;79.25;98420.03;4135696;28;20210;-50
2023/07/20 02:07:35;;;;;;;3.20;1.25;;;;;;;17.04;79.39;98419.13;4149357;28;20698;-50
2023/07/20 02:09:37;;;;;;;1.42;1.30;;;;;;;17.00;79.04;98420.84;4140627;28;20197;-50
2023/07/20 02:11:39;;;;;;;2.47;1.48;;;;;;;17.00;79.04;98418.91;4142282;28;20205;-50
2023/07/20 02:13:40;;;;;;;1.30;1.17;;;;;;;17.02;79.40;98422.22;4151501;28;20212;-51
2023/07/20 02:15:42;;;;;;;1.55;1.33;;;;;;;16.98;79.69;98417.56;4137526;28;20214;-50
2023/07/20 02:17:44;;;;;;;2.83;1.55;;;;;;;16.94;79.74;98422.03;4142172;28;20694;-49
2023/07/20 02:19:49;;;;;;;2.15;1.30;;;;;;;16.88;80.05;98420.44;4150195;28;20316;-50
2023/07/20 02:21:51;;;;;;;1.77;1.67;;;;;;;16.85;80.00;98426.56;4153242;28;20212;-53
2023/07/20 02:23:53;;;;;;;2.08;1.60;;;;;;;16.79;80.20;98419.44;4135462;28;20210;-52
2023/07/20 02:25:54;;;;;;;2.38;1.38;;;;;;;16.80;80.42;98417.47;4129449;28;20246;-49
2023/07/20 02:27:56;;;;;;;4.22;1.30;;;;;;;16.80;80.65;98421.06;4137286;28;20284;-49
2023/07/20 02:29:58;;;;;;;2.72;1.50;;;;;;;16.82;80.96;98429.88;4138593;28;20206;-49
2023/07/20 02:31:59;;;;;;;4.38;1.50;;;;;;;16.82;81.20;98435.41;4139993;28;20678;-50
2023/07/20 02:34:01;;;;;;;4.80;2.08;;;;;;;16.81;81.33;98439.31;4137257;28;20246;-48
2023/07/20 02:36:03;;;;;;;1.75;1.20;;;;;;;16.71;81.37;98439.41;4151771;28;20219;-47
2023/07/20 02:38:06;;;;;;;1.45;1.13;;;;;;;16.63;81.62;98441.97;4139876;28;20237;-48
2023/07/20 02:40:09;;;;;;;1.35;1.10;;;;;;;16.63;81.89;98447.50;4142988;28;20218;-50
2023/07/20 02:42:10;;;;;;;3.72;1.65;;;;;;;16.62;81.96;98443.91;4137931;28;20212;-48
2023/07/20 02:44:13;;;;;;;1.55;1.40;;;;;;;16.60;82.23;98448.91;4152786;28;20204;-48
2023/07/20 02:46:15;;;;;;;2.33;1.38;;;;;;;16.55;82.58;98437.91;4153828;28;20951;-49
2023/07/20 02:48:18;;;;;;;1.30;1.20;;;;;;;16.47;83.10;98444.06;4142490;28;20232;-47
2023/07/20 02:50:20;;;;;;;2.38;1.35;;;;;;;16.43;83.12;98451.25;4129109;28;20640;-49
2023/07/20 02:52:21;;;;;;;4.53;1.17;;;;;;;16.44;83.47;98444.63;4118899;28;20326;-48
2023/07/20 02:54:23;;;;;;;2.03;1.73;;;;;;;16.34;83.66;98439.16;4154396;28;20243;-48
2023/07/20 02:56:25;;;;;;;1.35;1.10;;;;;;;16.40;83.58;98449.09;4136046;28;20260;-48
2023/07/20 02:58:27;;;;;;;1.58;1.40;;;;;;;16.47;83.40;98443.22;4136962;28;20225;-50
2023/07/20 03:00:28;;;;;;;3.35;1.35;;;;;;;16.30;84.38;98443.59;4144597;28;20283;-48
2023/07/20 03:02:30;;;;;;;1.67;1.30;;;;;;;16.41;83.82;98445.19;4145364;28;20762;-47
2023/07/20 03:04:32;;;;;;;3.15;1.70;;;;;;;16.43;83.59;98442.97;4136925;28;20677;-49
2023/07/20 03:06:36;;;;;;;3.42;1.60;;;;;;;16.43;83.71;98448.50;4140585;28;20209;-47
2023/07/20 03:08:38;;;;;;;1.48;1.35;;;;;;;16.47;83.92;98446.81;4138312;28;20229;-48
2023/07/20 03:10:40;;;;;;;2.03;1.30;;;;;;;16.42;83.68;98446.84;4141755;28;20572;-48
2023/07/20 03:12:42;;;;;;;1.58;1.48;;;;;;;16.35;83.92;98451.84;4140395;28;20206;-48
2023/07/20 03:14:44;;;;;;;1.73;1.63;;;;;;;16.46;84.46;98447.94;4141832;28;20209;-48
2023/07/20 03:16:45;;;;;;;2.35;1.27;;;;;;;16.41;84.28;98450.72;4139402;28;20206;-48
2023/07/20 03:18:47;;;;;;;1.52;1.17;;;;;;;16.35;84.26;98446.31;4144485;28;20292;-47
2023/07/20 03:20:49;;;;;;;1.60;1.50;;;;;;;16.32;84.26;98459.88;4144075;28;20263;-48
2023/07/20 03:22:51;;;;;;;2.78;2.58;;;;;;;16.38;84.23;98456.84;4137000;28;20205;-49
2023/07/20 03:24:53;;;;;;;2.90;1.67;;;;;;;16.41;84.31;98456.25;4135970;28;20201;-48
2023/07/20 03:26:54;;;;;;;1.88;1.30;;;;;;;16.46;84.79;98458.97;4138506;28;20296;-49
2023/07/20 03:28:56;;;;;;;3.53;1.75;;;;;;;16.46;84.58;98458.97;4135691;28;20312;-51
2023/07/20 03:30:58;;;;;;;1.80;1.40;;;;;;;16.45;85.00;98454.56;4139707;28;20718;-50
2023/07/20 03:33:00;;;;;;;2.13;2.03;;;;;;;16.41;85.30;98456.25;4144572;28;20639;-51
2023/07/20 03:35:02;;;;;;;2.08;1.30;;;;;;;16.41;85.34;98456.25;4151733;28;20213;-49
2023/07/20 03:37:04;;;;;;;1.90;1.80;;;;;;;16.42;85.57;98457.91;4139037;28;20213;-50
2023/07/20 03:39:06;;;;;;;2.30;1.40;;;;;;;16.40;85.33;98460.13;4144081;28;20237;-50
2023/07/20 03:41:09;;;;;;;2.72;1.35;;;;;;;16.41;85.52;98461.78;4137814;28;20225;-49
2023/07/20 03:43:10;;;;;;;3.47;1.65;;;;;;;16.46;85.70;98464.50;4152626;28;20205;-53
2023/07/20 03:45:12;;;;;;;2.08;1.58;;;;;;;16.39;85.87;98458.50;4151828;28;20217;-49
2023/07/20 03:47:14;;;;;;;2.80;1.80;;;;;;;16.38;85.90;98467.06;4141790;28;20688;-50
2023/07/20 03:49:16;;;;;;;2.33;1.60;;;;;;;16.35;85.88;98460.13;4137080;28;20236;-50
2023/07/20 03:51:18;;;;;;;2.28;1.17;;;;;;;16.33;85.96;98459.59;4139058;28;20249;-49
2023/07/20 03:53:20;;;;;;;1.48;1.35;;;;;;;16.31;86.15;98461.84;4136583;28;20213;-49
2023/07/20 03:55:22;;;;;;;2.33;1.70;;;;;;;16.24;85.98;98466.84;4153554;28;20706;-50
2023/07/20 03:57:23;;;;;;;3.30;1.95;;;;;;;16.31;86.22;98461.00;4138767;28;20269;-49
2023/07/20 03:59:25;;;;;;;1.50;1.40;;;;;;;16.29;86.16;98458.53;4134727;28;20707;-51
2023/07/20 04:01:27;;;;;;;2.20;1.20;;;;;;;16.22;86.34;98466.31;4141094;28;20213;-48
2023/07/20 04:03:29;;;;;;;3.70;1.42;;;;;;;16.21;86.69;98464.66;4152515;28;20312;-48
2023/07/20 04:05:31;;;;;;;2.50;1.70;;;;;;;16.17;87.03;98463.56;4141349;28;20210;-48
2023/07/20 04:07:33;;;;;;;5.07;1.60;;;;;;;16.12;87.32;98465.56;4135906;28;20217;-50
2023/07/20 04:09:34;;;;;;;2.50;1.70;;;;;;;16.11;87.37;98466.69;4139330;28;20229;-49
2023/07/20 04:11:36;;;;;;;1.27;1.17;;;;;;;16.09;88.00;98468.91;4137552;28;20704;-49
2023/07/20 04:13:38;;;;;;;2.17;1.50;;;;;;;16.04;88.29;98466.19;4135900;28;20214;-50
2023/07/20 04:15:40;;;;;;;3.95;1.80;;;;;;;16.06;88.21;98470.31;4135563;28;20216;-49
2023/07/20 04:17:42;;;;;;;2.05;1.77;;;;;;;16.06;88.13;98475.81;4140307;28;20596;-50
2023/07/20 04:19:44;;;;;;;8.88;2.53;;;;;;;16.05;88.18;98468.66;4142678;28;20236;-49
2023/07/20 04:21:45;;;;;;;5.20;1.20;;;;;;;16.03;88.15;98465.34;4141376;28;20209;-49
2023/07/20 04:23:47;;;;;;;4.63;2.03;;;;;;;16.03;88.35;98470.06;4127622;28;20252;-49
2023/07/20 04:25:49;;;;;;;5.50;1.92;;;;;;;15.97;88.49;98474.75;4134232;28;20589;-50
2023/07/20 04:27:51;;;;;;;2.67;1.45;;;;;;;15.99;88.45;98469.78;4152110;28;20209;-50
2023/07/20 04:29:53;;;;;;;2.20;1.42;;;;;;;16.03;88.47;98470.84;4142641;28;20293;-51
2023/07/20 04:31:55;;;;;;;5.70;1.85;;;;;;;16.00;88.59;98468.69;4142840;28;20692;-51
2023/07/20 04:33:56;;;;;;;2.92;1.75;;;;;;;16.05;88.67;98474.19;4134401;28;20244;-50
2023/07/20 04:35:58;;;;;;;5.88;2.00;;;;;;;16.04;88.85;98461.47;4138487;28;20245;-50
2023/07/20 04:38:00;;;;;;;16.30;2.38;;;;;;;16.00;88.77;98465.91;4142097;28;20291;-51
2023/07/20 04:40:03;;;;;;;15.15;3.03;;;;;;;16.05;89.04;98462.28;4135926;28;20332;-49
2023/07/20 04:42:05;;;;;;;9.23;2.80;;;;;;;16.02;89.32;98469.22;4152239;28;20213;-53
2023/07/20 04:44:06;;;;;;;21.17;2.10;;;;;;;16.04;89.36;98466.19;4137929;28;20293;-50
2023/07/20 04:46:09;;;;;;;12.70;2.53;;;;;;;16.14;89.18;98466.94;4138413;28;20205;-49
2023/07/20 04:48:15;;;;;;;10.98;2.35;;;;;;;16.06;89.27;98464.78;4136172;28;20316;-49
2023/07/20 04:50:17;;;;;;;3.22;1.80;;;;;;;16.05;89.12;98467.81;4136452;28;20709;-51
2023/07/20 04:52:19;;;;;;;5.25;1.92;;;;;;;16.10;89.16;98465.03;4136141;28;20211;-51
2023/07/20 04:54:30;;;;;;;4.28;2.17;;;;;;;16.09;89.38;98475.22;4145414;28;20310;-50
2023/07/20 04:56:33;;;;;;;2.83;2.30;;;;;;;16.12;89.19;98468.31;4135589;28;20662;-52
2023/07/20 04:58:34;;;;;;;2.55;1.70;;;;;;;16.14;89.07;98469.69;4138139;28;20817;-52
2023/07/20 05:00:38;;;;;;;3.10;1.60;;;;;;;16.21;88.86;98472.94;4137877;28;20623;-52
2023/07/20 05:02:40;;;;;;;8.85;1.85;;;;;;;16.19;89.10;98468.81;4150820;28;20213;-52
2023/07/20 05:04:41;;;;;;;4.22;1.80;;;;;;;16.27;89.17;98469.03;4140334;28;20687;-52
2023/07/20 05:06:43;;;;;;;5.85;1.80;;;;;;;16.27;89.01;98468.19;4149775;28;20791;-49
2023/07/20 05:08:55;;;;;;;3.28;2.28;;;;;;;16.23;89.69;98470.72;4135373;28;20233;-49
2023/07/20 05:11:04;;;;;;;2.78;1.90;;;;;;;16.20;89.52;98470.47;4142200;28;20205;-49
2023/07/20 05:13:06;;;;;;;1.92;1.73;;;;;;;16.25;89.56;98471.28;4151101;28;20217;-48
2023/07/20 05:15:09;;;;;;;3.92;1.85;;;;;;;16.26;89.64;98475.69;4143262;28;21068;-54
2023/07/20 05:17:10;;;;;;;5.47;1.70;;;;;;;16.26;89.66;98470.16;4151373;28;20213;-50
2023/07/20 05:19:12;;;;;;;3.05;1.67;;;;;;;16.30;89.35;98481.47;4149358;28;20233;-47
2023/07/20 05:21:14;;;;;;;2.17;1.98;;;;;;;16.39;89.48;98480.59;4137654;28;20210;-48
2023/07/20 05:23:21;;;;;;;3.38;1.90;;;;;;;16.32;90.36;98474.53;4143350;28;20329;-48
2023/07/20 05:25:23;;;;;;;9.63;2.42;;;;;;;15.82;92.71;98480.38;4144673;28;20212;-49
2023/07/20 05:27:25;;;;;;;5.32;2.30;;;;;;;15.84;94.37;98469.06;4149408;28;20220;-48
2023/07/20 05:29:27;;;;;;;4.63;2.63;;;;;;;15.87;94.27;98468.47;4119651;28;20233;-48
2023/07/20 05:31:30;;;;;;;2.58;2.15;;;;;;;16.04;92.96;98464.22;4136806;28;20272;-48
2023/07/20 05:33:32;;;;;;;7.72;2.22;;;;;;;16.16;91.88;98467.44;4133964;28;20213;-48
2023/07/20 05:35:34;;;;;;;3.17;1.60;;;;;;;16.28;91.50;98462.41;4134190;28;20278;-49
2023/07/20 05:37:40;;;;;;;2.50;1.65;;;;;;;16.56;90.11;98464.41;4124318;28;20209;-47
2023/07/20 05:39:42;;;;;;;3.05;2.08;;;;;;;16.81;90.25;98469.69;4120710;28;20234;-49
2023/07/20 05:41:44;;;;;;;4.15;1.60;;;;;;;16.99;89.17;98475.31;4139216;28;20328;-50
2023/07/20 05:43:46;;;;;;;4.25;1.83;;;;;;;17.20;88.50;98467.63;4133737;28;20953;-49
2023/07/20 05:45:51;;;;;;;4.10;1.88;;;;;;;17.35;88.90;98467.44;4135972;28;20209;-50
2023/07/20 05:47:53;;;;;;;4.07;1.88;;;;;;;17.62;87.64;98474.06;4136051;28;20270;-50
2023/07/20 05:49:55;;;;;;;5.25;1.98;;;;;;;17.68;87.07;98474.81;4141237;28;20794;-49
2023/07/20 05:51:56;;;;;;;7.25;2.40;;;;;;;17.92;85.49;98478.38;4141155;28;20205;-49
2023/07/20 05:53:59;;;;;;;2.67;1.80;;;;;;;18.08;85.20;98477.03;4141773;28;20296;-50
2023/07/20 05:56:00;;;;;;;4.00;1.92;;;;;;;18.19;83.78;98478.53;4135399;28;20316;-51
2023/07/20 05:58:08;;;;;;;3.28;1.88;;;;;;;18.27;84.57;98480.63;4141851;28;20225;-50
2023/07/20 06:00:12;;;;;;;6.20;2.03;;;;;;;18.43;84.11;98479.28;4137318;28;20618;-49
2023/07/20 06:02:16;;;;;;;4.38;1.73;;;;;;;18.46;83.55;98484.25;4141175;28;20205;-48
2023/07/20 06:04:18;;;;;;;2.33;2.00;;;;;;;18.62;83.00;98482.84;4142192;28;20205;-50
2023/07/20 06:06:20;;;;;;;5.05;1.60;;;;;;;18.82;83.11;98482.50;4141731;28;20284;-50
2023/07/20 06:08:22;;;;;;;3.60;2.28;;;;;;;18.84;82.64;98492.16;4120056;28;20265;-49
2023/07/20 06:10:24;;;;;;;4.22;2.33;;;;;;;18.90;81.51;98490.97;4134822;28;20213;-51
2023/07/20 06:12:26;;;;;;;4.10;2.15;;;;;;;18.88;79.99;98487.69;4139306;28;20309;-49
2023/07/20 06:14:28;;;;;;;6.57;1.98;;;;;;;18.95;80.27;98487.25;4143619;28;20243;-49
2023/07/20 06:16:30;;;;;;;3.92;1.88;;;;;;;18.74;80.33;98491.53;4141905;28;20247;-49
2023/07/20 06:18:32;;;;;;;2.63;1.55;;;;;;;18.82;80.58;98499.16;4137620;28;20233;-49
2023/07/20 06:20:34;;;;;;;2.17;1.25;;;;;;;18.86;79.35;98492.69;4138038;28;20650;-48
2023/07/20 06:22:38;;;;;;;6.07;1.77;;;;;;;18.95;79.02;98488.09;4140610;28;20224;-50
2023/07/20 06:24:41;;;;;;;2.08;1.80;;;;;;;19.06;79.15;98485.97;4126634;28;20214;-50
2023/07/20 06:26:43;;;;;;;3.30;1.63;;;;;;;18.89;80.37;98485.72;4138242;28;20220;-48
2023/07/20 06:28:47;;;;;;;4.70;2.20;;;;;;;19.19;79.21;98487.94;4133223;28;20284;-50
2023/07/20 06:30:50;;;;;;;10.23;2.20;;;;;;;19.30;78.60;98492.19;4153866;28;20569;-51
2023/07/20 06:32:52;;;;;;;4.85;2.20;;;;;;;19.50;77.69;98491.78;4140471;28;20229;-50
2023/07/20 06:34:54;;;;;;;6.53;2.58;;;;;;;19.51;78.94;98497.03;4124195;28;20198;-49
2023/07/20 06:36:56;;;;;;;3.47;1.65;;;;;;;19.86;77.50;98487.16;4140885;28;20251;-51
2023/07/20 06:38:58;;;;;;;3.90;1.98;;;;;;;20.00;76.33;98491.56;4135814;28;20225;-50
2023/07/20 06:41:03;;;;;;;2.45;1.77;;;;;;;20.02;75.80;98480.13;4147068;28;20236;-50
2023/07/20 06:43:07;;;;;;;3.75;1.67;;;;;;;19.97;76.72;98488.59;4137903;28;20216;-50
2023/07/20 06:45:14;;;;;;;4.13;1.90;;;;;;;19.98;75.23;98482.69;4137501;28;20215;-48
2023/07/20 06:47:15;;;;;;;3.47;1.60;;;;;;;20.25;74.09;98479.09;4137592;28;20267;-48
2023/07/20 06:49:28;;;;;;;3.65;1.83;;;;;;;20.29;74.50;98496.75;4126181;28;20240;-49
2023/07/20 06:51:33;;;;;;;2.50;1.45;;;;;;;20.42;72.76;98484.78;4121879;28;20273;-49
2023/07/20 06:53:34;;;;;;;3.97;1.60;;;;;;;19.93;73.64;98490.34;4136879;28;20201;-50
2023/07/20 06:55:36;;;;;;;2.53;1.38;;;;;;;19.71;75.04;98484.72;4136223;28;20205;-50
2023/07/20 06:57:41;;;;;;;2.42;1.52;;;;;;;19.90;74.79;98488.19;4138539;28;20596;-50
2023/07/20 06:59:48;;;;;;;1.98;1.42;;;;;;;19.97;75.90;98485.81;4140314;28;20201;-51
2023/07/20 07:01:50;;;;;;;5.95;1.40;;;;;;;19.96;74.90;98481.38;4149621;28;20210;-51
2023/07/20 07:03:52;;;;;;;2.28;1.73;;;;;;;20.07;74.94;98486.44;4151901;28;20204;-53
2023/07/20 07:06:03;;;;;;;2.45;1.65;;;;;;;19.97;75.28;98485.81;4138081;28;20284;-49
2023/07/20 07:08:22;;;;;;;3.65;1.80;;;;;;;20.28;74.39;98484.84;4136501;28;20233;-51
2023/07/20 07:10:25;;;;;;;3.70;1.70;;;;;;;20.45;73.53;98486.94;4152423;28;20197;-50
2023/07/20 07:12:37;;;;;;;9.45;1.48;;;;;;;20.55;73.34;98490.31;4140370;28;20201;-49
2023/07/20 07:14:39;;;;;;;2.28;1.75;;;;;;;20.75;72.34;98484.25;4144522;28;20211;-49
2023/07/20 07:16:48;;;;;;;6.38;1.63;;;;;;;21.03;71.56;98490.50;4136932;28;20220;-51
2023/07/20 07:18:52;;;;;;;2.30;1.48;;;;;;;21.32;71.44;98488.84;4139797;28;20225;-50
2023/07/20 07:21:01;;;;;;;26.55;1.98;;;;;;;21.33;71.22;98484.13;4138533;28;20267;-51
2023/07/20 07:23:07;;;;;;;2.22;1.50;;;;;;;21.54;69.79;98486.03;4128743;28;20248;-49
2023/07/20 07:25:12;;;;;;;2.65;1.48;;;;;;;21.41;69.20;98486.13;4135757;28;20272;-48
2023/07/20 07:27:33;;;;;;;2.20;1.38;;;;;;;20.99;68.34;98489.50;4142101;28;20208;-49
2023/07/20 07:29:36;;;;;;;3.95;1.98;;;;;;;21.57;70.43;98479.00;4129706;28;20311;-48
2023/07/20 07:31:40;;;;;;;1.70;1.25;;;;;;;21.67;68.50;98479.56;4136071;28;20211;-49
2023/07/20 07:33:42;;;;;;;4.45;1.80;;;;;;;22.05;67.28;98485.41;4143134;28;20216;-49
2023/07/20 07:35:44;;;;;;;11.90;1.55;;;;;;;22.22;65.28;98485.41;4152288;28;20295;-48
2023/07/20 07:38:06;;;;;;;2.88;1.45;;;;;;;22.46;66.06;98485.78;4143628;28;20233;-48
2023/07/20 07:40:28;;;;;;;3.10;1.45;;;;;;;22.39;65.51;98485.44;4129528;28;20213;-49
2023/07/20 07:42:30;;;;;;;2.42;1.13;;;;;;;22.56;64.63;98479.91;4143260;28;20758;-49
2023/07/20 07:44:32;;;;;;;3.28;1.48;;;;;;;22.90;63.98;98479.88;4145025;28;20208;-49
2023/07/20 07:46:34;;;;;;;2.42;1.55;;;;;;;22.38;62.26;98483.81;4137195;28;20217;-49
2023/07/20 07:48:36;;;;;;;3.25;1.00;;;;;;;22.45;63.39;98475.78;4129719;28;20222;-48
2023/07/20 07:50:42;;;;;;;2.38;1.33;;;;;;;22.99;63.21;98478.72;4140506;28;20637;-48
2023/07/20 07:52:51;;;;;;;10.95;1.38;;;;;;;23.01;62.34;98481.97;4143584;28;20208;-48
2023/07/20 07:55:04;;;;;;;3.03;1.30;;;;;;;23.21;60.79;98475.72;4139233;28;20236;-50
2023/07/20 07:57:07;;;;;;;3.47;1.38;;;;;;;23.32;59.99;98481.78;4152634;28;20228;-51
2023/07/20 07:59:08;;;;;;;3.03;1.27;;;;;;;23.26;59.32;98483.09;4144675;28;20225;-50
2023/07/20 08:01:22;;;;;;;1.52;0.98;;;;;;;23.47;59.31;98489.59;4138592;28;20224;-49
2023/07/20 08:03:26;;;;;;;1.83;1.10;;;;;;;23.45;59.52;98486.31;4145994;28;20213;-48
2023/07/20 08:05:28;;;;;;;2.05;1.42;;;;;;;23.25;58.83;98487.06;4136404;28;20263;-48
2023/07/20 08:07:30;;;;;;;2.20;1.10;;;;;;;22.96;60.09;98484.13;4128465;28;20225;-51
2023/07/20 08:09:32;;;;;;;5.88;1.33;;;;;;;23.26;59.70;98485.91;4132923;28;20605;-49
2023/07/20 08:11:33;;;;;;;2.92;1.40;;;;;;;23.31;60.17;98480.13;4138661;28;20272;-51
2023/07/20 08:13:36;;;;;;;1.70;1.10;;;;;;;23.47;59.16;98487.63;4130424;28;20217;-52
2023/07/20 08:15:50;;;;;;;1.95;0.93;;;;;;;23.77;58.58;98485.72;4136061;28;20719;-50
2023/07/20 08:17:53;;;;;;;7.53;1.98;;;;;;;23.94;57.42;98490.06;4137060;28;20938;-49
2023/07/20 08:19:55;;;;;;;2.88;1.45;;;;;;;24.07;57.51;98477.81;4137968;28;20289;-50
2023/07/20 08:21:57;;;;;;;4.05;1.20;;;;;;;23.92;56.54;98484.00;4136982;28;20275;-48
2023/07/20 08:24:00;;;;;;;3.08;1.30;;;;;;;23.72;56.82;98480.28;4142080;28;20232;-49
2023/07/20 08:26:01;;;;;;;2.40;0.90;;;;;;;23.35;56.71;98487.50;4137953;28;20206;-49
2023/07/20 08:28:03;;;;;;;4.25;1.30;;;;;;;23.49;57.01;98487.28;4137673;28;20229;-49
2023/07/20 08:30:07;;;;;;;1.92;1.10;;;;;;;23.37;58.16;98484.41;4137117;28;20263;-49
2023/07/20 08:32:16;;;;;;;3.28;1.02;;;;;;;23.77;56.29;98484.53;4136891;28;20215;-50
2023/07/20 08:34:18;;;;;;;2.33;1.27;;;;;;;23.80;56.40;98488.66;4135784;28;20221;-49
2023/07/20 08:36:31;;;;;;;1.65;0.85;;;;;;;23.83;55.05;98480.41;4136593;28;20655;-48
2023/07/20 08:38:33;;;;;;;3.38;1.00;;;;;;;23.48;55.73;98486.47;4141028;28;20232;-47
2023/07/20 08:40:45;;;;;;;2.03;1.10;;;;;;;23.33;55.73;98489.81;4140393;28;20239;-49
2023/07/20 08:42:46;;;;;;;1.45;0.80;;;;;;;23.29;53.41;98482.41;4140260;28;20211;-48
2023/07/20 08:44:49;;;;;;;2.15;1.00;;;;;;;23.62;55.10;98486.25;4122212;28;20738;-48
2023/07/20 08:46:51;;;;;;;1.20;0.80;;;;;;;23.64;54.96;98484.75;4151414;28;20208;-48
2023/07/20 08:48:55;;;;;;;1.05;0.80;;;;;;;23.81;54.38;98485.50;4137084;28;20251;-49
2023/07/20 08:51:00;;;;;;;1.40;0.90;;;;;;;23.85;54.79;98486.47;4147521;28;20243;-48
2023/07/20 08:53:02;;;;;;;1.38;1.08;;;;;;;23.91;56.16;98484.31;4138861;28;20284;-48
2023/07/20 08:55:05;;;;;;;1.35;0.80;;;;;;;23.67;53.42;98479.31;4148937;28;20217;-48
2023/07/20 08:57:07;;;;;;;2.00;1.13;;;;;;;23.73;53.94;98477.97;4119857;28;20272;-47
2023/07/20 08:59:09;;;;;;;1.85;1.08;;;;;;;23.99;52.86;98470.31;4135395;28;20242;-48
2023/07/20 09:01:11;;;;;;;1.63;0.95;;;;;;;24.43;53.64;98480.88;4120048;28;20229;-49
2023/07/20 09:03:14;;;;;;;1.63;0.98;;;;;;;24.74;53.26;98478.47;4136447;28;20670;-48
2023/07/20 09:05:17;;;;;;;7.63;1.20;;;;;;;25.03;50.88;98472.78;4137042;28;20208;-49
2023/07/20 09:07:21;;;;;;;2.38;0.98;;;;;;;25.13;50.60;98477.94;4134100;28;20221;-49
2023/07/20 09:09:23;;;;;;;1.35;1.00;;;;;;;25.27;51.41;98467.25;4133302;28;20589;-49
2023/07/20 09:11:25;;;;;;;0.95;0.88;;;;;;;25.50;50.87;98471.28;4136455;28;20618;-49
2023/07/20 09:13:27;;;;;;;1.92;1.00;;;;;;;25.70;51.37;98469.56;4137916;28;20786;-48
2023/07/20 09:15:30;;;;;;;2.13;1.10;;;;;;;25.14;49.94;98468.38;4135193;28;20252;-49
2023/07/20 09:17:31;;;;;;;2.15;0.80;;;;;;;25.19;51.17;98475.75;4121442;28;20206;-49
2023/07/20 09:19:34;;;;;;;1.67;0.88;;;;;;;25.58;49.85;98472.38;4132282;28;20854;-49
2023/07/20 09:21:36;;;;;;;5.03;0.90;;;;;;;25.70;49.75;98473.19;4131437;28;20320;-49
2023/07/20 09:23:41;;;;;;;2.05;0.90;;;;;;;25.30;50.68;98479.78;4117066;28;20216;-49
2023/07/20 09:25:50;;;;;;;3.08;0.90;;;;;;;24.88;50.58;98476.25;4136285;28;20213;-49
2023/07/20 09:27:53;;;;;;;1.88;1.00;;;;;;;24.03;50.70;98470.44;4135113;28;20263;-49
2023/07/20 09:29:56;;;;;;;1.23;0.80;;;;;;;23.76;52.28;98481.28;4122895;28;20221;-49
2023/07/20 09:32:03;;;;;;;1.63;0.90;;;;;;;23.71;51.81;98473.88;4135616;28;20209;-48
2023/07/20 09:34:08;;;;;;;2.22;1.13;;;;;;;23.99;51.72;98470.31;4149014;28;20215;-52
2023/07/20 09:36:11;;;;;;;1.30;0.90;;;;;;;24.46;51.64;98480.19;4134858;28;20590;-48
2023/07/20 09:38:33;;;;;;;2.20;0.80;;;;;;;25.18;50.46;98474.94;4135166;28;20224;-49
2023/07/20 09:40:54;;;;;;;1.83;1.00;;;;;;;24.79;49.27;98478.28;4136828;28;20263;-48
2023/07/20 09:43:04;;;;;;;1.77;0.95;;;;;;;25.16;50.15;98476.44;4133340;28;20228;-48